createdAt,value
2018-05-06T00:05:32.818Z,12.7
2018-05-06T00:15:32.046Z,13.2
2018-05-06T00:25:31.323Z,12.6
2018-05-06T00:35:30.773Z,12.6
2018-05-06T00:45:29.738Z,13.2
2018-05-06T00:55:29.086Z,12.4
2018-05-06T01:05:28.269Z,13.2
2018-05-06T01:15:27.392Z,12.8
2018-05-06T01:25:26.960Z,12.6
2018-05-06T01:35:25.812Z,13
2018-05-06T01:45:25.093Z,12.5
2018-05-06T01:55:24.535Z,12.6
2018-05-06T02:05:24.146Z,12.6
2018-05-06T02:15:22.807Z,12.6
2018-05-06T02:25:22.288Z,13.2
2018-05-06T02:35:21.305Z,12.9
2018-05-06T02:45:20.661Z,12.9
2018-05-06T02:55:20.070Z,13.2
2018-05-06T03:05:18.892Z,12.6
2018-05-06T03:15:18.105Z,12.7
2018-05-06T03:25:17.249Z,13.1
2018-05-06T03:35:16.523Z,13.1
2018-05-06T03:45:15.677Z,13.3
2018-05-06T03:55:15.252Z,14
2018-05-06T04:05:14.458Z,14
2018-05-06T04:15:13.399Z,14.4
2018-05-06T04:25:13.181Z,14.5
2018-05-06T04:35:12.073Z,14.2
2018-05-06T04:45:11.017Z,14.3
2018-05-06T04:55:10.238Z,14
2018-05-06T05:05:10.025Z,14.1
2018-05-06T05:15:09.028Z,14.1
2018-05-06T05:25:07.883Z,14.5
2018-05-06T05:35:07.163Z,13.9
2018-05-06T05:45:06.354Z,14.1
2018-05-06T05:55:05.911Z,14.5
2018-05-06T06:05:04.827Z,14.7
2018-05-06T06:15:04.305Z,14.2
2018-05-06T06:25:03.230Z,14.3
2018-05-06T06:35:02.734Z,14.4
2018-05-06T06:45:01.659Z,14.4
2018-05-06T06:55:01.222Z,13.9
2018-05-06T07:05:00.479Z,14.4
2018-05-06T07:14:59.538Z,14
2018-05-06T07:24:58.585Z,14
2018-05-06T07:34:57.784Z,14.1
2018-05-06T07:44:57.608Z,14.6
2018-05-06T07:54:56.276Z,14.1
2018-05-06T08:04:55.483Z,14.6
2018-05-06T08:14:54.667Z,14.2
2018-05-06T08:24:53.928Z,14.3
2018-05-06T08:34:53.152Z,14
2018-05-06T08:44:52.457Z,14.7
2018-05-06T08:54:51.609Z,14.6
2018-05-06T09:04:50.783Z,14
2018-05-06T09:14:50.346Z,14.6
2018-05-06T09:24:49.272Z,14.4
2018-05-06T09:34:48.509Z,14.7
2018-05-06T09:44:47.743Z,14.7
2018-05-06T09:54:46.965Z,14
2018-05-06T10:04:46.163Z,14.4
2018-05-06T10:14:45.333Z,14.2
2018-05-06T10:24:44.664Z,14.1
2018-05-06T10:34:44.102Z,14.3
2018-05-06T10:44:43.120Z,14.5
2018-05-06T10:54:42.351Z,14.7
2018-05-06T11:04:41.451Z,14.2
2018-05-06T11:14:40.785Z,14.7
2018-05-06T11:24:40.015Z,13.9
2018-05-06T11:34:39.152Z,14.3
2018-05-06T11:44:38.394Z,14.1
2018-05-06T11:54:37.559Z,14.2
2018-05-06T12:04:36.837Z,14
2018-05-06T12:14:36.071Z,14.3
2018-05-06T12:24:35.574Z,14.5
2018-05-06T12:34:34.536Z,14.3
2018-05-06T12:44:33.991Z,13.8
2018-05-06T12:54:33.015Z,14.4
2018-05-06T13:04:32.234Z,14
2018-05-06T13:14:31.439Z,14.4
2018-05-06T13:24:30.820Z,14.3
2018-05-06T13:34:30.186Z,14.3
2018-05-06T13:44:29.010Z,14.6
2018-05-06T13:54:28.319Z,14.4
2018-05-06T14:04:27.484Z,14
2018-05-06T14:14:26.727Z,14.5
2018-05-06T14:24:25.952Z,14
2018-05-06T14:34:25.758Z,14.1
2018-05-06T14:44:24.430Z,14.4
2018-05-06T14:54:23.935Z,14.3
2018-05-06T15:04:23.141Z,14.4
2018-05-06T15:14:22.153Z,14.5
2018-05-06T15:24:21.293Z,13.5
2018-05-06T15:34:20.453Z,13.1
2018-05-06T15:44:19.746Z,13.7
2018-05-06T15:54:18.931Z,13.5
2018-05-06T16:04:18.260Z,13.5
2018-05-06T16:14:17.786Z,13.1
2018-05-06T16:24:16.579Z,13.1
2018-05-06T16:34:15.867Z,13
2018-05-06T16:44:15.086Z,12.5
2018-05-06T16:54:14.625Z,12.6
2018-05-06T17:04:13.507Z,13.1
2018-05-06T17:14:12.726Z,12.9
2018-05-06T17:24:11.930Z,12.9
2018-05-06T17:34:11.513Z,13
2018-05-06T17:44:10.387Z,12.8
2018-05-06T17:54:09.686Z,13.2
2018-05-06T18:04:08.831Z,12.8
2018-05-06T18:14:08.034Z,13.2
2018-05-06T18:24:08.547Z,13.1
2018-05-06T18:34:07.761Z,13.2
2018-05-06T18:44:06.908Z,12.6
2018-05-06T18:54:06.227Z,13.1
2018-05-06T19:04:05.445Z,12.9
2018-05-06T19:14:04.643Z,12.7
2018-05-06T19:24:03.840Z,12.7
2018-05-06T19:34:03.025Z,12.5
2018-05-06T19:44:02.326Z,12.9
2018-05-06T19:54:01.470Z,12.5
2018-05-06T20:04:00.712Z,12.7
2018-05-06T20:13:59.917Z,12.6
2018-05-06T20:23:59.500Z,13.1
2018-05-06T20:33:59.020Z,13.1
2018-05-06T20:43:57.653Z,12.6
2018-05-06T20:53:56.924Z,12.5
2018-05-06T21:03:56.126Z,12.8
2018-05-06T21:13:55.312Z,13.1
2018-05-06T21:23:54.574Z,13
2018-05-06T21:33:54.161Z,12.6
2018-05-06T21:43:52.988Z,12.4
2018-05-06T21:53:52.258Z,12.5
2018-05-06T22:03:51.443Z,13
2018-05-06T22:13:50.611Z,13.1
2018-05-06T22:23:50.116Z,12.8
2018-05-06T22:33:49.406Z,12.9
2018-05-06T22:43:48.277Z,13.1
2018-05-06T22:53:47.580Z,12.8
2018-05-06T23:03:46.713Z,13.1
2018-05-06T23:13:45.996Z,12.6
2018-05-06T23:23:45.175Z,12.4
2018-05-06T23:33:44.398Z,12.7
2018-05-06T23:43:43.620Z,12.8
2018-05-06T23:53:42.855Z,13.1
